Time,TemperatureF,DewpointF,PressureIn,WindDirection,WindDirectionDegrees,WindSpeedMPH,WindSpeedGustMPH,Humidity,HourlyPrecipIn,Conditions,Clouds,dailyrainin,SoftwareType,DateUTC
2013-10-29 00:06:00,38.0,38.0,-100.00,NNE,20,5.0,7.0,100,0.00,,,0.06,,2013-10-29 06:06:00,
2013-10-29 00:25:00,38.0,38.0,-100.00,NE,51,4.0,5.0,100,0.00,,,0.06,,2013-10-29 06:25:00,
2013-10-29 00:34:00,38.0,38.0,-100.00,NE,51,4.0,5.0,100,0.00,,,0.06,,2013-10-29 06:34:00,
2013-10-29 00:52:00,38.0,38.0,-100.00,NE,49,4.0,7.0,99,0.00,,,0.06,,2013-10-29 06:52:00,
2013-10-29 01:01:00,38.0,38.0,-100.00,NE,49,4.0,7.0,99,0.00,,,0.06,,2013-10-29 07:01:00,
2013-10-29 01:24:00,38.0,38.0,-100.00,NE,51,5.0,7.0,100,0.00,,,0.06,,2013-10-29 07:24:00,
2013-10-29 01:31:00,38.0,38.0,-100.00,NE,51,5.0,7.0,100,0.00,,,0.06,,2013-10-29 07:31:00,
2013-10-29 01:43:00,38.0,38.0,-100.00,NE,51,5.0,7.0,100,0.00,,,0.06,,2013-10-29 07:43:00,
2013-10-29 01:55:00,37.0,37.0,-100.00,NW,312,6.0,7.0,100,0.00,,,0.06,,2013-10-29 07:55:00,
2013-10-29 02:05:00,37.0,37.0,-100.00,NW,312,6.0,7.0,100,0.00,,,0.06,,2013-10-29 08:05:00,
2013-10-29 02:24:00,37.0,37.0,-100.00,NNW,332,4.0,4.0,100,0.00,,,0.05,,2013-10-29 08:24:00,
2013-10-29 02:31:00,37.0,37.0,-100.00,NNW,332,4.0,4.0,100,0.00,,,0.05,,2013-10-29 08:31:00,
2013-10-29 02:52:00,37.0,37.0,-100.00,WNW,298,2.0,3.0,100,0.00,,,0.05,,2013-10-29 08:52:00,
2013-10-29 03:02:00,37.0,37.0,-100.00,WNW,298,2.0,3.0,100,0.00,,,0.05,,2013-10-29 09:02:00,
2013-10-29 03:21:00,36.0,36.0,-100.00,WNW,287,1.0,1.0,100,0.00,,,0.05,,2013-10-29 09:21:00,
2013-10-29 03:33:00,36.0,36.0,-100.00,WNW,287,1.0,1.0,100,0.00,,,0.05,,2013-10-29 09:33:00,
2013-10-29 03:53:00,35.0,35.0,-100.00,South,172,3.0,3.0,100,0.00,,,0.05,,2013-10-29 09:53:00,
2013-10-29 04:03:00,35.0,35.0,-100.00,South,172,3.0,3.0,100,0.00,,,0.05,,2013-10-29 10:03:00,
2013-10-29 04:23:00,36.0,36.0,-100.00,West,267,2.0,3.0,100,0.00,,,0.05,,2013-10-29 10:23:00,
2013-10-29 04:33:00,36.0,36.0,-100.00,West,267,2.0,3.0,100,0.00,,,0.05,,2013-10-29 10:33:00,
2013-10-29 04:53:00,36.0,36.0,-100.00,West,260,2.0,2.0,100,0.00,,,0.05,,2013-10-29 10:53:00,
2013-10-29 05:03:00,36.0,36.0,-100.00,West,260,2.0,2.0,100,0.00,,,0.05,,2013-10-29 11:03:00,
2013-10-29 05:22:00,36.0,36.0,-100.00,West,275,2.0,3.0,100,0.00,,,0.05,,2013-10-29 11:22:00,
2013-10-29 05:33:00,36.0,36.0,-100.00,West,275,2.0,3.0,100,0.00,,,0.05,,2013-10-29 11:33:00,
2013-10-29 05:52:00,36.0,36.0,-100.00,SSW,192,0.0,1.0,100,0.00,,,0.05,,2013-10-29 11:52:00,
2013-10-29 06:01:00,36.0,36.0,-100.00,SSW,192,0.0,1.0,100,0.00,,,0.05,,2013-10-29 12:01:00,
2013-10-29 06:52:00,36.0,36.0,-100.00,SW,223,2.0,3.0,100,0.00,,,0.05,,2013-10-29 12:52:00,
2013-10-29 07:02:00,36.0,36.0,-100.00,SW,223,2.0,3.0,100,0.00,,,0.05,,2013-10-29 13:02:00,
2013-10-29 07:21:00,36.0,36.0,-100.00,SSE,155,3.0,4.0,100,0.00,,,0.05,,2013-10-29 13:21:00,
2013-10-29 07:32:00,36.0,36.0,-100.00,SSE,155,3.0,4.0,100,0.00,,,0.05,,2013-10-29 13:32:00,
2013-10-29 07:52:00,36.0,36.0,-100.00,SW,223,3.0,4.0,100,0.00,,,0.05,,2013-10-29 13:52:00,
2013-10-29 08:02:00,36.0,36.0,-100.00,SW,223,3.0,4.0,100,0.00,,,0.05,,2013-10-29 14:02:00,
2013-10-29 08:21:00,36.0,36.0,-100.00,WSW,256,1.0,3.0,100,0.00,,,0.05,,2013-10-29 14:21:00,
2013-10-29 08:32:00,36.0,36.0,-100.00,WSW,256,1.0,3.0,100,0.00,,,0.05,,2013-10-29 14:32:00,
2013-10-29 08:52:00,36.0,36.0,-100.00,NNE,13,3.0,4.0,100,0.00,,,0.05,,2013-10-29 14:52:00,
2013-10-29 09:02:00,36.0,36.0,-100.00,NNE,13,3.0,4.0,100,0.00,,,0.05,,2013-10-29 15:02:00,
2013-10-29 09:21:00,36.0,36.0,-100.00,NNE,16,1.0,1.0,100,0.00,,,0.05,,2013-10-29 15:21:00,
2013-10-29 09:33:00,36.0,36.0,-100.00,NNE,16,1.0,1.0,100,0.00,,,0.05,,2013-10-29 15:33:00,
2013-10-29 09:54:00,36.0,36.0,-100.00,ENE,76,3.0,5.0,100,0.00,,,0.05,,2013-10-29 15:54:00,
2013-10-29 10:03:00,36.0,36.0,-100.00,ENE,76,3.0,5.0,100,0.00,,,0.05,,2013-10-29 16:03:00,
2013-10-29 10:23:00,37.0,37.0,-100.00,ESE,104,0.0,2.0,100,0.00,,,0.05,,2013-10-29 16:23:00,
2013-10-29 10:33:00,37.0,37.0,-100.00,ESE,104,0.0,2.0,100,0.00,,,0.05,,2013-10-29 16:33:00,
2013-10-29 10:53:00,38.0,37.0,-100.00,SE,144,1.0,3.0,96,0.00,,,0.05,,2013-10-29 16:53:00,
2013-10-29 11:02:00,38.0,37.0,-100.00,SE,144,1.0,3.0,96,0.00,,,0.05,,2013-10-29 17:02:00,
2013-10-29 11:22:00,39.0,38.0,-100.00,West,261,4.0,6.0,98,0.00,,,0.05,,2013-10-29 17:22:00,
2013-10-29 11:33:00,39.0,38.0,-100.00,West,261,4.0,6.0,98,0.00,,,0.05,,2013-10-29 17:33:00,
2013-10-29 11:52:00,39.0,38.0,-100.00,SE,133,1.0,2.0,97,0.00,,,0.05,,2013-10-29 17:52:00,
2013-10-29 12:01:00,39.0,38.0,-100.00,SE,133,1.0,2.0,97,0.00,,,0.05,,2013-10-29 18:01:00,
2013-10-29 12:21:00,40.0,39.0,-100.00,SSE,164,3.0,5.0,97,0.00,,,0.05,,2013-10-29 18:21:00,
2013-10-29 12:32:00,40.0,39.0,-100.00,SSE,164,3.0,5.0,97,0.00,,,0.05,,2013-10-29 18:32:00,
2013-10-29 12:52:00,41.0,39.0,-100.00,SSE,154,3.0,5.0,95,0.00,,,0.05,,2013-10-29 18:52:00,
2013-10-29 13:02:00,41.0,39.0,-100.00,SSE,154,3.0,5.0,95,0.00,,,0.05,,2013-10-29 19:02:00,
2013-10-29 13:21:00,42.0,40.0,-100.00,SW,216,2.0,4.0,95,0.00,,,0.05,,2013-10-29 19:21:00,
2013-10-29 13:32:00,42.0,40.0,-100.00,SW,216,2.0,4.0,95,0.00,,,0.05,,2013-10-29 19:32:00,
2013-10-29 13:53:00,45.0,41.0,-100.00,South,172,4.0,6.0,87,0.00,,,0.05,,2013-10-29 19:53:00,
2013-10-29 14:02:00,45.0,41.0,-100.00,South,172,4.0,6.0,87,0.00,,,0.05,,2013-10-29 20:02:00,
2013-10-29 14:22:00,48.0,41.0,-100.00,South,181,5.0,7.0,76,0.00,,,0.05,,2013-10-29 20:22:00,
2013-10-29 14:32:00,48.0,41.0,-100.00,South,181,5.0,7.0,76,0.00,,,0.05,,2013-10-29 20:32:00,
2013-10-29 14:52:00,48.0,39.0,-100.00,SSE,160,6.0,11.0,69,0.00,,,0.02,,2013-10-29 20:52:00,
2013-10-29 15:01:00,48.0,39.0,-100.00,SSE,160,6.0,11.0,69,0.00,,,0.02,,2013-10-29 21:01:00,
2013-10-29 15:22:00,51.0,38.0,-100.00,SE,141,2.0,5.0,63,0.00,,,0.01,,2013-10-29 21:22:00,
2013-10-29 15:34:00,51.0,38.0,-100.00,SE,141,2.0,5.0,63,0.00,,,0.01,,2013-10-29 21:34:00,
2013-10-29 15:43:00,51.0,38.0,-100.00,SE,141,2.0,5.0,63,0.00,,,0.01,,2013-10-29 21:43:00,
2013-10-29 16:13:00,50.0,38.0,-100.00,WSW,239,7.0,9.0,65,0.00,,,0.01,,2013-10-29 22:13:00,
2013-10-29 16:23:00,50.0,38.0,-100.00,WSW,239,7.0,9.0,65,0.00,,,0.01,,2013-10-29 22:23:00,
2013-10-29 16:43:00,50.0,37.0,-100.00,WSW,246,2.0,4.0,61,0.00,,,0.00,,2013-10-29 22:43:00,
2013-10-29 17:12:00,50.0,37.0,-100.00,WSW,244,5.0,7.0,60,0.00,,,0.00,,2013-10-29 23:12:00,
2013-10-29 17:43:00,50.0,36.0,-100.00,West,277,5.0,6.0,59,0.00,,,0.00,,2013-10-29 23:43:00,
2013-10-29 18:11:00,50.0,36.0,-100.00,WSW,237,4.0,5.0,60,0.00,,,0.00,,2013-10-30 00:11:00,
2013-10-29 18:42:00,49.0,38.0,-100.00,SSW,209,3.0,4.0,66,0.00,,,0.00,,2013-10-30 00:42:00,
2013-10-29 19:11:00,47.0,39.0,-100.00,SSW,208,2.0,3.0,73,0.00,,,0.00,,2013-10-30 01:11:00,
2013-10-29 19:42:00,46.0,39.0,-100.00,WSW,254,2.0,3.0,79,0.00,,,0.00,,2013-10-30 01:42:00,
2013-10-29 20:11:00,45.0,39.0,-100.00,SSW,199,2.0,2.0,80,0.00,,,0.00,,2013-10-30 02:11:00,
2013-10-29 20:42:00,45.0,40.0,-100.00,ESE,123,2.0,3.0,80,0.00,,,0.00,,2013-10-30 02:42:00,
2013-10-29 21:11:00,44.0,40.0,-100.00,SSW,208,5.0,6.0,85,0.04,,,0.01,,2013-10-30 03:11:00,
2013-10-29 21:44:00,44.0,41.0,-100.00,South,176,6.0,7.0,90,0.00,,,0.02,,2013-10-30 03:44:00,
2013-10-29 22:13:00,43.0,41.0,-100.00,South,191,6.0,8.0,93,0.00,,,0.02,,2013-10-30 04:13:00,
2013-10-29 22:44:00,43.0,42.0,-100.00,SSW,210,11.0,13.0,95,0.00,,,0.02,,2013-10-30 04:44:00,
2013-10-29 23:13:00,42.0,41.0,-100.00,SSW,203,11.0,12.0,97,0.00,,,0.02,,2013-10-30 05:13:00,
2013-10-29 23:43:00,42.0,41.0,-100.00,SSW,210,11.0,14.0,96,0.00,,,0.02,,2013-10-30 05:43:00,